sensor_id;sensor_type;location;lat;lon;timestamp;P1;durP1;ratioP1;P2;durP2;ratioP2
76574;SDS011;65439;50.948;6.988;2023-05-10T00:00:08;14.38;;;8.88;;
76574;SDS011;65439;50.948;6.988;2023-05-10T00:02:34;11.52;;;7.38;;
76574;SDS011;65439;50.948;6.988;2023-05-10T00:04:59;13.90;;;8.35;;
76574;SDS011;65439;50.948;6.988;2023-05-10T00:07:25;14.05;;;8.43;;
76574;SDS011;65439;50.948;6.988;2023-05-10T00:09:50;12.70;;;8.00;;
76574;SDS011;65439;50.948;6.988;2023-05-10T00:12:15;12.03;;;8.07;;
76574;SDS011;65439;50.948;6.988;2023-05-10T00:14:41;14.32;;;8.23;;
76574;SDS011;65439;50.948;6.988;2023-05-10T00:17:06;14.30;;;8.75;;
76574;SDS011;65439;50.948;6.988;2023-05-10T00:19:31;15.30;;;9.40;;
76574;SDS011;65439;50.948;6.988;2023-05-10T00:21:57;13.70;;;8.80;;
76574;SDS011;65439;50.948;6.988;2023-05-10T00:24:22;17.07;;;9.23;;
76574;SDS011;65439;50.948;6.988;2023-05-10T00:26:47;15.90;;;8.77;;
76574;SDS011;65439;50.948;6.988;2023-05-10T00:29:12;16.60;;;9.70;;
76574;SDS011;65439;50.948;6.988;2023-05-10T00:31:38;14.90;;;9.27;;
76574;SDS011;65439;50.948;6.988;2023-05-10T00:34:03;18.43;;;10.33;;
76574;SDS011;65439;50.948;6.988;2023-05-10T00:36:28;17.20;;;10.07;;
76574;SDS011;65439;50.948;6.988;2023-05-10T00:38:54;18.05;;;10.75;;
76574;SDS011;65439;50.948;6.988;2023-05-10T00:41:19;22.33;;;10.40;;
76574;SDS011;65439;50.948;6.988;2023-05-10T00:46:11;22.77;;;12.03;;
76574;SDS011;65439;50.948;6.988;2023-05-10T00:48:37;20.33;;;11.23;;
76574;SDS011;65439;50.948;6.988;2023-05-10T00:51:02;20.47;;;11.13;;
76574;SDS011;65439;50.948;6.988;2023-05-10T00:53:27;20.38;;;10.25;;
76574;SDS011;65439;50.948;6.988;2023-05-10T00:55:53;22.17;;;10.25;;
76574;SDS011;65439;50.948;6.988;2023-05-10T00:58:19;21.42;;;11.50;;
76574;SDS011;65439;50.948;6.988;2023-05-10T01:00:44;19.40;;;10.97;;
76574;SDS011;65439;50.948;6.988;2023-05-10T01:03:11;21.73;;;11.68;;
76574;SDS011;65439;50.948;6.988;2023-05-10T01:05:37;20.75;;;11.52;;
76574;SDS011;65439;50.948;6.988;2023-05-10T01:08:02;21.13;;;12.20;;
76574;SDS011;65439;50.948;6.988;2023-05-10T01:10:28;21.02;;;11.57;;
76574;SDS011;65439;50.948;6.988;2023-05-10T01:12:53;23.25;;;12.13;;
76574;SDS011;65439;50.948;6.988;2023-05-10T01:15:18;19.98;;;10.55;;
76574;SDS011;65439;50.948;6.988;2023-05-10T01:17:45;22.30;;;11.80;;
76574;SDS011;65439;50.948;6.988;2023-05-10T01:20:12;22.80;;;10.88;;
76574;SDS011;65439;50.948;6.988;2023-05-10T01:31:02;21.98;;;11.98;;
76574;SDS011;65439;50.948;6.988;2023-05-10T01:44:39;16.63;;;9.55;;
76574;SDS011;65439;50.948;6.988;2023-05-10T01:47:10;19.48;;;10.35;;
76574;SDS011;65439;50.948;6.988;2023-05-10T01:49:40;19.75;;;10.18;;
76574;SDS011;65439;50.948;6.988;2023-05-10T01:52:09;20.80;;;10.48;;
76574;SDS011;65439;50.948;6.988;2023-05-10T01:54:41;19.48;;;10.25;;
76574;SDS011;65439;50.948;6.988;2023-05-10T01:57:09;17.88;;;10.73;;
76574;SDS011;65439;50.948;6.988;2023-05-10T01:59:37;19.63;;;10.25;;
76574;SDS011;65439;50.948;6.988;2023-05-10T02:02:06;16.90;;;10.30;;
76574;SDS011;65439;50.948;6.988;2023-05-10T02:04:33;18.30;;;10.48;;
76574;SDS011;65439;50.948;6.988;2023-05-10T02:07:00;19.65;;;10.93;;
76574;SDS011;65439;50.948;6.988;2023-05-10T02:09:25;19.58;;;11.40;;
76574;SDS011;65439;50.948;6.988;2023-05-10T02:11:52;12.23;;;8.50;;
76574;SDS011;65439;50.948;6.988;2023-05-10T02:14:19;10.25;;;6.80;;
76574;SDS011;65439;50.948;6.988;2023-05-10T02:16:44;14.60;;;8.30;;
76574;SDS011;65439;50.948;6.988;2023-05-10T02:19:11;12.80;;;7.75;;
76574;SDS011;65439;50.948;6.988;2023-05-10T02:21:37;10.60;;;6.55;;
76574;SDS011;65439;50.948;6.988;2023-05-10T02:24:04;11.38;;;6.95;;
76574;SDS011;65439;50.948;6.988;2023-05-10T02:26:31;12.70;;;7.78;;
76574;SDS011;65439;50.948;6.988;2023-05-10T02:28:57;12.98;;;7.65;;
76574;SDS011;65439;50.948;6.988;2023-05-10T02:31:23;12.38;;;6.53;;
76574;SDS011;65439;50.948;6.988;2023-05-10T02:33:48;11.02;;;6.25;;
76574;SDS011;65439;50.948;6.988;2023-05-10T02:36:14;11.75;;;7.18;;
76574;SDS011;65439;50.948;6.988;2023-05-10T02:38:40;12.02;;;6.78;;
76574;SDS011;65439;50.948;6.988;2023-05-10T02:41:05;12.38;;;6.70;;
76574;SDS011;65439;50.948;6.988;2023-05-10T02:43:33;14.55;;;8.13;;
76574;SDS011;65439;50.948;6.988;2023-05-10T02:45:58;11.18;;;6.43;;
76574;SDS011;65439;50.948;6.988;2023-05-10T02:48:24;14.25;;;7.32;;
76574;SDS011;65439;50.948;6.988;2023-05-10T02:50:50;10.65;;;7.15;;
76574;SDS011;65439;50.948;6.988;2023-05-10T02:53:18;12.13;;;6.70;;
76574;SDS011;65439;50.948;6.988;2023-05-10T02:55:46;12.85;;;7.47;;
76574;SDS011;65439;50.948;6.988;2023-05-10T02:58:15;11.07;;;7.10;;
76574;SDS011;65439;50.948;6.988;2023-05-10T03:00:40;12.93;;;7.77;;
76574;SDS011;65439;50.948;6.988;2023-05-10T03:03:05;12.47;;;7.87;;
76574;SDS011;65439;50.948;6.988;2023-05-10T03:05:31;14.32;;;6.68;;
76574;SDS011;65439;50.948;6.988;2023-05-10T03:07:58;13.57;;;7.28;;
76574;SDS011;65439;50.948;6.988;2023-05-10T03:10:26;13.23;;;7.15;;
76574;SDS011;65439;50.948;6.988;2023-05-10T03:12:57;13.25;;;7.65;;
76574;SDS011;65439;50.948;6.988;2023-05-10T03:15:33;12.05;;;7.30;;
76574;SDS011;65439;50.948;6.988;2023-05-10T03:18:21;12.48;;;6.55;;
76574;SDS011;65439;50.948;6.988;2023-05-10T03:20:48;13.38;;;6.85;;
76574;SDS011;65439;50.948;6.988;2023-05-10T03:23:22;16.70;;;7.85;;
76574;SDS011;65439;50.948;6.988;2023-05-10T03:25:59;14.10;;;7.45;;
76574;SDS011;65439;50.948;6.988;2023-05-10T03:28:25;14.27;;;8.25;;
76574;SDS011;65439;50.948;6.988;2023-05-10T03:33:17;14.15;;;7.90;;
76574;SDS011;65439;50.948;6.988;2023-05-10T03:35:43;16.50;;;9.43;;
76574;SDS011;65439;50.948;6.988;2023-05-10T03:38:10;16.02;;;8.65;;
76574;SDS011;65439;50.948;6.988;2023-05-10T03:40:36;16.95;;;8.00;;
76574;SDS011;65439;50.948;6.988;2023-05-10T03:43:01;14.90;;;8.07;;
76574;SDS011;65439;50.948;6.988;2023-05-10T03:45:26;13.80;;;8.40;;
76574;SDS011;65439;50.948;6.988;2023-05-10T03:47:52;18.35;;;9.20;;
76574;SDS011;65439;50.948;6.988;2023-05-10T03:50:17;14.98;;;8.95;;
76574;SDS011;65439;50.948;6.988;2023-05-10T03:52:43;17.33;;;9.32;;
76574;SDS011;65439;50.948;6.988;2023-05-10T03:55:09;21.88;;;10.20;;
76574;SDS011;65439;50.948;6.988;2023-05-10T03:57:34;20.00;;;9.25;;
76574;SDS011;65439;50.948;6.988;2023-05-10T04:00:00;18.23;;;10.30;;
76574;SDS011;65439;50.948;6.988;2023-05-10T04:02:25;22.23;;;13.20;;
76574;SDS011;65439;50.948;6.988;2023-05-10T04:04:51;23.60;;;11.50;;
76574;SDS011;65439;50.948;6.988;2023-05-10T04:07:16;21.17;;;11.13;;
76574;SDS011;65439;50.948;6.988;2023-05-10T04:09:41;21.90;;;12.07;;
76574;SDS011;65439;50.948;6.988;2023-05-10T04:12:07;24.92;;;13.38;;
76574;SDS011;65439;50.948;6.988;2023-05-10T04:14:32;21.80;;;12.13;;
76574;SDS011;65439;50.948;6.988;2023-05-10T04:16:57;24.33;;;13.60;;
76574;SDS011;65439;50.948;6.988;2023-05-10T04:19:22;24.50;;;13.13;;
76574;SDS011;65439;50.948;6.988;2023-05-10T04:21:48;28.50;;;14.40;;
76574;SDS011;65439;50.948;6.988;2023-05-10T04:24:13;27.00;;;13.83;;
76574;SDS011;65439;50.948;6.988;2023-05-10T04:26:39;27.70;;;14.73;;
76574;SDS011;65439;50.948;6.988;2023-05-10T04:29:05;25.35;;;14.75;;
76574;SDS011;65439;50.948;6.988;2023-05-10T04:31:30;26.07;;;13.63;;
76574;SDS011;65439;50.948;6.988;2023-05-10T04:33:55;24.37;;;13.43;;
76574;SDS011;65439;50.948;6.988;2023-05-10T04:36:21;25.13;;;13.83;;
76574;SDS011;65439;50.948;6.988;2023-05-10T04:38:46;26.97;;;12.93;;
76574;SDS011;65439;50.948;6.988;2023-05-10T04:41:11;26.20;;;13.77;;
76574;SDS011;65439;50.948;6.988;2023-05-10T04:43:37;24.48;;;14.07;;
76574;SDS011;65439;50.948;6.988;2023-05-10T04:46:02;22.08;;;12.52;;
76574;SDS011;65439;50.948;6.988;2023-05-10T04:48:28;29.23;;;16.48;;
76574;SDS011;65439;50.948;6.988;2023-05-10T04:50:56;30.50;;;15.15;;
76574;SDS011;65439;50.948;6.988;2023-05-10T04:53:22;23.63;;;13.98;;
76574;SDS011;65439;50.948;6.988;2023-05-10T04:55:47;21.02;;;13.38;;
76574;SDS011;65439;50.948;6.988;2023-05-10T04:58:13;27.13;;;13.63;;
76574;SDS011;65439;50.948;6.988;2023-05-10T05:00:38;27.70;;;14.02;;
76574;SDS011;65439;50.948;6.988;2023-05-10T05:03:03;22.45;;;14.27;;
76574;SDS011;65439;50.948;6.988;2023-05-10T05:05:29;27.20;;;14.07;;
76574;SDS011;65439;50.948;6.988;2023-05-10T05:07:54;24.73;;;13.63;;
76574;SDS011;65439;50.948;6.988;2023-05-10T05:10:19;21.73;;;12.83;;
76574;SDS011;65439;50.948;6.988;2023-05-10T05:12:45;21.37;;;13.33;;
76574;SDS011;65439;50.948;6.988;2023-05-10T05:15:10;20.27;;;12.00;;
76574;SDS011;65439;50.948;6.988;2023-05-10T05:17:36;26.60;;;13.07;;
76574;SDS011;65439;50.948;6.988;2023-05-10T05:20:01;23.02;;;13.48;;
76574;SDS011;65439;50.948;6.988;2023-05-10T05:22:28;22.98;;;13.38;;
76574;SDS011;65439;50.948;6.988;2023-05-10T05:24:56;27.08;;;13.45;;
76574;SDS011;65439;50.948;6.988;2023-05-10T05:27:23;18.20;;;12.68;;
76574;SDS011;65439;50.948;6.988;2023-05-10T05:29:52;25.52;;;14.15;;
76574;SDS011;65439;50.948;6.988;2023-05-10T05:32:17;18.48;;;12.20;;
76574;SDS011;65439;50.948;6.988;2023-05-10T05:34:46;18.70;;;11.27;;
76574;SDS011;65439;50.948;6.988;2023-05-10T05:37:12;23.52;;;12.00;;
76574;SDS011;65439;50.948;6.988;2023-05-10T05:39:41;19.75;;;11.85;;
76574;SDS011;65439;50.948;6.988;2023-05-10T05:42:07;23.60;;;12.05;;
76574;SDS011;65439;50.948;6.988;2023-05-10T05:44:33;19.30;;;12.20;;
76574;SDS011;65439;50.948;6.988;2023-05-10T05:46:58;20.93;;;11.17;;
76574;SDS011;65439;50.948;6.988;2023-05-10T05:49:23;23.83;;;11.37;;
76574;SDS011;65439;50.948;6.988;2023-05-10T05:51:49;19.37;;;10.57;;
76574;SDS011;65439;50.948;6.988;2023-05-10T05:54:15;16.45;;;9.95;;
76574;SDS011;65439;50.948;6.988;2023-05-10T05:56:40;23.33;;;10.75;;
76574;SDS011;65439;50.948;6.988;2023-05-10T05:59:05;19.42;;;10.63;;
76574;SDS011;65439;50.948;6.988;2023-05-10T06:01:31;21.10;;;10.07;;
76574;SDS011;65439;50.948;6.988;2023-05-10T06:03:56;21.10;;;10.90;;
76574;SDS011;65439;50.948;6.988;2023-05-10T06:06:21;20.35;;;10.30;;
76574;SDS011;65439;50.948;6.988;2023-05-10T06:08:47;17.57;;;9.70;;
76574;SDS011;65439;50.948;6.988;2023-05-10T06:11:12;17.23;;;10.13;;
76574;SDS011;65439;50.948;6.988;2023-05-10T06:13:37;22.83;;;11.03;;
76574;SDS011;65439;50.948;6.988;2023-05-10T06:16:03;18.13;;;9.60;;
76574;SDS011;65439;50.948;6.988;2023-05-10T06:18:28;16.33;;;9.30;;
76574;SDS011;65439;50.948;6.988;2023-05-10T06:20:54;19.08;;;9.88;;
76574;SDS011;65439;50.948;6.988;2023-05-10T06:23:19;19.70;;;11.00;;
76574;SDS011;65439;50.948;6.988;2023-05-10T06:25:44;21.77;;;10.63;;
76574;SDS011;65439;50.948;6.988;2023-05-10T06:28:10;19.40;;;10.03;;
76574;SDS011;65439;50.948;6.988;2023-05-10T06:30:35;17.27;;;10.47;;
76574;SDS011;65439;50.948;6.988;2023-05-10T06:33:01;23.83;;;10.75;;
76574;SDS011;65439;50.948;6.988;2023-05-10T06:35:27;18.77;;;10.85;;
76574;SDS011;65439;50.948;6.988;2023-05-10T06:37:53;18.45;;;9.90;;
76574;SDS011;65439;50.948;6.988;2023-05-10T06:40:18;18.95;;;10.77;;
76574;SDS011;65439;50.948;6.988;2023-05-10T06:42:44;19.92;;;11.27;;
76574;SDS011;65439;50.948;6.988;2023-05-10T06:45:11;19.35;;;11.20;;
76574;SDS011;65439;50.948;6.988;2023-05-10T06:47:36;22.85;;;11.55;;
76574;SDS011;65439;50.948;6.988;2023-05-10T06:50:02;17.27;;;10.13;;
76574;SDS011;65439;50.948;6.988;2023-05-10T06:52:28;21.00;;;11.45;;
76574;SDS011;65439;50.948;6.988;2023-05-10T06:54:53;17.83;;;11.60;;
76574;SDS011;65439;50.948;6.988;2023-05-10T06:57:18;23.23;;;12.70;;
76574;SDS011;65439;50.948;6.988;2023-05-10T06:59:44;19.08;;;11.65;;
76574;SDS011;65439;50.948;6.988;2023-05-10T07:02:09;32.33;;;13.70;;
76574;SDS011;65439;50.948;6.988;2023-05-10T07:04:35;20.77;;;11.73;;
76574;SDS011;65439;50.948;6.988;2023-05-10T07:07:00;19.63;;;10.32;;
76574;SDS011;65439;50.948;6.988;2023-05-10T07:09:25;18.90;;;11.13;;
76574;SDS011;65439;50.948;6.988;2023-05-10T07:11:51;20.85;;;10.68;;
76574;SDS011;65439;50.948;6.988;2023-05-10T07:14:16;22.07;;;11.87;;
76574;SDS011;65439;50.948;6.988;2023-05-10T07:16:42;25.87;;;12.40;;
76574;SDS011;65439;50.948;6.988;2023-05-10T07:19:07;29.03;;;11.00;;
76574;SDS011;65439;50.948;6.988;2023-05-10T07:21:32;20.57;;;11.47;;
76574;SDS011;65439;50.948;6.988;2023-05-10T07:23:57;18.77;;;10.87;;
76574;SDS011;65439;50.948;6.988;2023-05-10T07:26:23;19.03;;;9.70;;
76574;SDS011;65439;50.948;6.988;2023-05-10T07:28:48;20.98;;;12.57;;
76574;SDS011;65439;50.948;6.988;2023-05-10T07:31:14;17.75;;;10.88;;
76574;SDS011;65439;50.948;6.988;2023-05-10T07:33:39;18.27;;;9.77;;
76574;SDS011;65439;50.948;6.988;2023-05-10T07:36:05;17.83;;;10.90;;
76574;SDS011;65439;50.948;6.988;2023-05-10T07:38:30;18.80;;;11.23;;
76574;SDS011;65439;50.948;6.988;2023-05-10T07:40:55;17.00;;;9.93;;
76574;SDS011;65439;50.948;6.988;2023-05-10T07:43:21;25.00;;;11.68;;
76574;SDS011;65439;50.948;6.988;2023-05-10T07:45:47;19.07;;;9.53;;
76574;SDS011;65439;50.948;6.988;2023-05-10T07:48:12;21.92;;;10.40;;
76574;SDS011;65439;50.948;6.988;2023-05-10T07:50:37;18.50;;;9.05;;
76574;SDS011;65439;50.948;6.988;2023-05-10T07:53:03;14.83;;;9.40;;
76574;SDS011;65439;50.948;6.988;2023-05-10T07:55:28;16.47;;;9.70;;
76574;SDS011;65439;50.948;6.988;2023-05-10T07:57:53;23.03;;;11.47;;
76574;SDS011;65439;50.948;6.988;2023-05-10T08:00:19;22.92;;;9.95;;
76574;SDS011;65439;50.948;6.988;2023-05-10T08:02:45;19.33;;;10.60;;
76574;SDS011;65439;50.948;6.988;2023-05-10T08:05:10;25.85;;;11.40;;
76574;SDS011;65439;50.948;6.988;2023-05-10T08:07:36;33.15;;;11.05;;
76574;SDS011;65439;50.948;6.988;2023-05-10T08:10:02;24.63;;;11.35;;
76574;SDS011;65439;50.948;6.988;2023-05-10T08:12:27;25.20;;;12.68;;
76574;SDS011;65439;50.948;6.988;2023-05-10T08:14:53;25.60;;;12.60;;
76574;SDS011;65439;50.948;6.988;2023-05-10T08:17:18;22.33;;;11.53;;
76574;SDS011;65439;50.948;6.988;2023-05-10T08:19:43;20.83;;;11.27;;
76574;SDS011;65439;50.948;6.988;2023-05-10T08:22:09;24.93;;;11.73;;
76574;SDS011;65439;50.948;6.988;2023-05-10T08:24:35;19.38;;;10.63;;
76574;SDS011;65439;50.948;6.988;2023-05-10T08:27:03;21.80;;;11.10;;
76574;SDS011;65439;50.948;6.988;2023-05-10T08:29:29;19.88;;;10.52;;
76574;SDS011;65439;50.948;6.988;2023-05-10T08:31:54;16.08;;;10.80;;
76574;SDS011;65439;50.948;6.988;2023-05-10T08:34:20;20.23;;;11.57;;
76574;SDS011;65439;50.948;6.988;2023-05-10T08:36:45;19.53;;;10.70;;
76574;SDS011;65439;50.948;6.988;2023-05-10T08:39:10;14.60;;;8.87;;
76574;SDS011;65439;50.948;6.988;2023-05-10T08:41:36;17.50;;;9.63;;
76574;SDS011;65439;50.948;6.988;2023-05-10T08:44:05;16.58;;;9.38;;
76574;SDS011;65439;50.948;6.988;2023-05-10T08:46:33;21.23;;;11.25;;
76574;SDS011;65439;50.948;6.988;2023-05-10T08:49:03;12.20;;;8.13;;
76574;SDS011;65439;50.948;6.988;2023-05-10T08:51:29;18.30;;;8.18;;
76574;SDS011;65439;50.948;6.988;2023-05-10T08:53:57;13.77;;;8.02;;
76574;SDS011;65439;50.948;6.988;2023-05-10T08:56:22;12.68;;;7.28;;
76574;SDS011;65439;50.948;6.988;2023-05-10T08:58:48;14.88;;;7.72;;
76574;SDS011;65439;50.948;6.988;2023-05-10T09:01:14;14.95;;;7.90;;
76574;SDS011;65439;50.948;6.988;2023-05-10T09:03:41;14.73;;;7.63;;
76574;SDS011;65439;50.948;6.988;2023-05-10T09:06:07;13.45;;;7.78;;
76574;SDS011;65439;50.948;6.988;2023-05-10T09:08:33;14.25;;;7.95;;
76574;SDS011;65439;50.948;6.988;2023-05-10T09:10:59;18.52;;;9.43;;
76574;SDS011;65439;50.948;6.988;2023-05-10T09:13:25;14.70;;;9.95;;
76574;SDS011;65439;50.948;6.988;2023-05-10T09:15:51;15.38;;;9.90;;
76574;SDS011;65439;50.948;6.988;2023-05-10T09:18:16;17.85;;;10.77;;
76574;SDS011;65439;50.948;6.988;2023-05-10T09:20:42;22.05;;;12.15;;
76574;SDS011;65439;50.948;6.988;2023-05-10T09:23:07;20.75;;;12.50;;
76574;SDS011;65439;50.948;6.988;2023-05-10T09:25:33;22.48;;;14.00;;
76574;SDS011;65439;50.948;6.988;2023-05-10T09:27:58;28.33;;;12.75;;
76574;SDS011;65439;50.948;6.988;2023-05-10T09:30:30;22.95;;;14.10;;
76574;SDS011;65439;50.948;6.988;2023-05-10T09:32:56;24.15;;;13.25;;
76574;SDS011;65439;50.948;6.988;2023-05-10T09:35:26;24.58;;;13.40;;
76574;SDS011;65439;50.948;6.988;2023-05-10T09:37:53;26.30;;;13.85;;
76574;SDS011;65439;50.948;6.988;2023-05-10T09:40:21;26.60;;;13.32;;
76574;SDS011;65439;50.948;6.988;2023-05-10T09:42:54;22.92;;;11.48;;
76574;SDS011;65439;50.948;6.988;2023-05-10T09:45:21;23.02;;;12.00;;
76574;SDS011;65439;50.948;6.988;2023-05-10T09:47:47;24.80;;;11.90;;
76574;SDS011;65439;50.948;6.988;2023-05-10T09:50:12;23.80;;;11.90;;
76574;SDS011;65439;50.948;6.988;2023-05-10T09:55:21;23.00;;;11.00;;
76574;SDS011;65439;50.948;6.988;2023-05-10T09:57:48;22.02;;;11.07;;
76574;SDS011;65439;50.948;6.988;2023-05-10T10:00:18;21.92;;;10.18;;
76574;SDS011;65439;50.948;6.988;2023-05-10T10:02:45;19.50;;;10.65;;
76574;SDS011;65439;50.948;6.988;2023-05-10T10:05:11;18.45;;;10.70;;
76574;SDS011;65439;50.948;6.988;2023-05-10T10:07:36;20.15;;;9.98;;
76574;SDS011;65439;50.948;6.988;2023-05-10T10:10:02;17.70;;;10.45;;
76574;SDS011;65439;50.948;6.988;2023-05-10T10:12:29;16.92;;;9.43;;
76574;SDS011;65439;50.948;6.988;2023-05-10T10:14:55;16.83;;;10.32;;
76574;SDS011;65439;50.948;6.988;2023-05-10T10:17:21;19.38;;;10.15;;
76574;SDS011;65439;50.948;6.988;2023-05-10T10:19:46;18.27;;;8.67;;
76574;SDS011;65439;50.948;6.988;2023-05-10T10:22:13;14.15;;;8.82;;
76574;SDS011;65439;50.948;6.988;2023-05-10T10:24:38;16.73;;;9.10;;
76574;SDS011;65439;50.948;6.988;2023-05-10T10:27:15;18.20;;;9.98;;
76574;SDS011;65439;50.948;6.988;2023-05-10T10:29:49;15.45;;;9.10;;
76574;SDS011;65439;50.948;6.988;2023-05-10T10:32:38;12.27;;;7.70;;
76574;SDS011;65439;50.948;6.988;2023-05-10T10:35:14;15.02;;;7.93;;
76574;SDS011;65439;50.948;6.988;2023-05-10T10:37:47;10.57;;;6.57;;
76574;SDS011;65439;50.948;6.988;2023-05-10T10:40:22;12.40;;;7.43;;
76574;SDS011;65439;50.948;6.988;2023-05-10T10:42:48;12.55;;;7.72;;
76574;SDS011;65439;50.948;6.988;2023-05-10T10:45:15;10.43;;;6.90;;
76574;SDS011;65439;50.948;6.988;2023-05-10T10:47:40;12.63;;;6.30;;
76574;SDS011;65439;50.948;6.988;2023-05-10T10:50:08;10.27;;;6.13;;
76574;SDS011;65439;50.948;6.988;2023-05-10T10:52:35;10.35;;;6.80;;
76574;SDS011;65439;50.948;6.988;2023-05-10T11:02:48;10.60;;;5.75;;
76574;SDS011;65439;50.948;6.988;2023-05-10T11:10:38;11.68;;;7.05;;
76574;SDS011;65439;50.948;6.988;2023-05-10T11:13:07;12.18;;;6.78;;
76574;SDS011;65439;50.948;6.988;2023-05-10T11:15:34;10.77;;;6.97;;
76574;SDS011;65439;50.948;6.988;2023-05-10T11:21:05;9.80;;;6.53;;
76574;SDS011;65439;50.948;6.988;2023-05-10T11:26:17;10.77;;;5.47;;
76574;SDS011;65439;50.948;6.988;2023-05-10T11:28:43;8.90;;;5.30;;
76574;SDS011;65439;50.948;6.988;2023-05-10T11:31:09;7.35;;;4.82;;
76574;SDS011;65439;50.948;6.988;2023-05-10T11:33:49;6.68;;;4.38;;
76574;SDS011;65439;50.948;6.988;2023-05-10T11:36:19;5.85;;;3.88;;
76574;SDS011;65439;50.948;6.988;2023-05-10T11:38:49;11.23;;;3.83;;
76574;SDS011;65439;50.948;6.988;2023-05-10T11:41:15;5.50;;;3.65;;
76574;SDS011;65439;50.948;6.988;2023-05-10T11:43:42;5.97;;;4.47;;
76574;SDS011;65439;50.948;6.988;2023-05-10T11:46:08;6.63;;;3.85;;
76574;SDS011;65439;50.948;6.988;2023-05-10T11:48:36;5.88;;;4.35;;
76574;SDS011;65439;50.948;6.988;2023-05-10T11:51:03;5.43;;;4.05;;
76574;SDS011;65439;50.948;6.988;2023-05-10T11:53:29;5.80;;;4.03;;
76574;SDS011;65439;50.948;6.988;2023-05-10T11:56:02;7.88;;;4.28;;
76574;SDS011;65439;50.948;6.988;2023-05-10T11:58:28;5.95;;;3.67;;
76574;SDS011;65439;50.948;6.988;2023-05-10T12:00:53;6.27;;;4.03;;
76574;SDS011;65439;50.948;6.988;2023-05-10T12:03:19;5.72;;;3.35;;
76574;SDS011;65439;50.948;6.988;2023-05-10T12:05:44;6.10;;;3.47;;
76574;SDS011;65439;50.948;6.988;2023-05-10T12:08:13;4.30;;;2.90;;
76574;SDS011;65439;50.948;6.988;2023-05-10T12:10:39;4.72;;;2.85;;
76574;SDS011;65439;50.948;6.988;2023-05-10T12:13:05;4.47;;;3.15;;
76574;SDS011;65439;50.948;6.988;2023-05-10T12:15:30;6.57;;;3.07;;
76574;SDS011;65439;50.948;6.988;2023-05-10T12:17:55;4.73;;;3.47;;
76574;SDS011;65439;50.948;6.988;2023-05-10T12:20:22;4.57;;;3.15;;
76574;SDS011;65439;50.948;6.988;2023-05-10T12:22:52;3.95;;;2.80;;
76574;SDS011;65439;50.948;6.988;2023-05-10T12:25:20;4.35;;;2.95;;
76574;SDS011;65439;50.948;6.988;2023-05-10T12:27:54;3.67;;;2.83;;
76574;SDS011;65439;50.948;6.988;2023-05-10T12:30:23;3.22;;;2.72;;
76574;SDS011;65439;50.948;6.988;2023-05-10T12:32:49;5.47;;;2.60;;
76574;SDS011;65439;50.948;6.988;2023-05-10T12:35:14;3.78;;;2.70;;
76574;SDS011;65439;50.948;6.988;2023-05-10T12:37:41;4.22;;;2.92;;
76574;SDS011;65439;50.948;6.988;2023-05-10T12:40:07;4.68;;;3.00;;
76574;SDS011;65439;50.948;6.988;2023-05-10T12:42:34;5.57;;;3.67;;
76574;SDS011;65439;50.948;6.988;2023-05-10T12:45:00;4.82;;;2.90;;
76574;SDS011;65439;50.948;6.988;2023-05-10T12:47:26;4.72;;;2.78;;
76574;SDS011;65439;50.948;6.988;2023-05-10T12:49:52;3.83;;;2.70;;
76574;SDS011;65439;50.948;6.988;2023-05-10T12:52:17;3.60;;;2.92;;
76574;SDS011;65439;50.948;6.988;2023-05-10T12:54:42;4.03;;;2.80;;
76574;SDS011;65439;50.948;6.988;2023-05-10T12:57:07;4.53;;;3.53;;
76574;SDS011;65439;50.948;6.988;2023-05-10T12:59:33;5.27;;;2.97;;
76574;SDS011;65439;50.948;6.988;2023-05-10T13:01:58;3.60;;;2.97;;
76574;SDS011;65439;50.948;6.988;2023-05-10T13:04:23;3.40;;;2.57;;
76574;SDS011;65439;50.948;6.988;2023-05-10T13:06:49;4.43;;;2.90;;
76574;SDS011;65439;50.948;6.988;2023-05-10T13:09:14;5.47;;;2.65;;
76574;SDS011;65439;50.948;6.988;2023-05-10T13:11:40;3.13;;;2.63;;
76574;SDS011;65439;50.948;6.988;2023-05-10T13:14:05;2.85;;;2.53;;
76574;SDS011;65439;50.948;6.988;2023-05-10T13:16:31;2.53;;;2.10;;
76574;SDS011;65439;50.948;6.988;2023-05-10T13:18:56;2.80;;;1.83;;
76574;SDS011;65439;50.948;6.988;2023-05-10T13:21:21;8.70;;;2.00;;
76574;SDS011;65439;50.948;6.988;2023-05-10T13:23:47;2.72;;;1.92;;
76574;SDS011;65439;50.948;6.988;2023-05-10T13:26:12;3.97;;;2.20;;
76574;SDS011;65439;50.948;6.988;2023-05-10T13:28:38;3.03;;;2.22;;
76574;SDS011;65439;50.948;6.988;2023-05-10T13:31:03;3.20;;;1.88;;
76574;SDS011;65439;50.948;6.988;2023-05-10T13:33:29;3.08;;;1.88;;
76574;SDS011;65439;50.948;6.988;2023-05-10T13:35:55;3.90;;;1.70;;
76574;SDS011;65439;50.948;6.988;2023-05-10T13:38:20;3.93;;;1.80;;
76574;SDS011;65439;50.948;6.988;2023-05-10T13:40:45;3.40;;;2.03;;
76574;SDS011;65439;50.948;6.988;2023-05-10T13:43:11;3.53;;;2.30;;
76574;SDS011;65439;50.948;6.988;2023-05-10T13:45:36;2.30;;;1.60;;
76574;SDS011;65439;50.948;6.988;2023-05-10T13:48:01;2.88;;;1.80;;
76574;SDS011;65439;50.948;6.988;2023-05-10T13:50:27;3.10;;;2.00;;
76574;SDS011;65439;50.948;6.988;2023-05-10T13:52:52;3.37;;;2.27;;
76574;SDS011;65439;50.948;6.988;2023-05-10T13:55:17;2.20;;;1.90;;
76574;SDS011;65439;50.948;6.988;2023-05-10T13:57:43;2.90;;;2.00;;
76574;SDS011;65439;50.948;6.988;2023-05-10T14:00:08;3.42;;;2.13;;
76574;SDS011;65439;50.948;6.988;2023-05-10T14:02:34;2.20;;;1.70;;
76574;SDS011;65439;50.948;6.988;2023-05-10T14:04:59;2.47;;;1.70;;
76574;SDS011;65439;50.948;6.988;2023-05-10T14:07:25;3.10;;;1.83;;
76574;SDS011;65439;50.948;6.988;2023-05-10T14:09:50;3.40;;;2.33;;
76574;SDS011;65439;50.948;6.988;2023-05-10T14:12:16;3.17;;;1.90;;
76574;SDS011;65439;50.948;6.988;2023-05-10T14:14:41;2.72;;;1.65;;
76574;SDS011;65439;50.948;6.988;2023-05-10T14:17:07;2.73;;;2.10;;
76574;SDS011;65439;50.948;6.988;2023-05-10T14:19:32;3.65;;;1.85;;
76574;SDS011;65439;50.948;6.988;2023-05-10T14:21:58;3.42;;;1.92;;
76574;SDS011;65439;50.948;6.988;2023-05-10T14:24:24;3.28;;;1.80;;
76574;SDS011;65439;50.948;6.988;2023-05-10T14:26:49;2.80;;;1.73;;
76574;SDS011;65439;50.948;6.988;2023-05-10T14:29:18;2.55;;;1.58;;
76574;SDS011;65439;50.948;6.988;2023-05-10T14:31:43;3.60;;;1.60;;
76574;SDS011;65439;50.948;6.988;2023-05-10T14:34:09;7.18;;;1.60;;
76574;SDS011;65439;50.948;6.988;2023-05-10T14:36:34;2.75;;;1.92;;
76574;SDS011;65439;50.948;6.988;2023-05-10T14:39:00;2.93;;;1.77;;
76574;SDS011;65439;50.948;6.988;2023-05-10T14:41:25;2.03;;;1.43;;
76574;SDS011;65439;50.948;6.988;2023-05-10T14:43:50;4.43;;;1.60;;
76574;SDS011;65439;50.948;6.988;2023-05-10T14:46:16;2.17;;;1.73;;
76574;SDS011;65439;50.948;6.988;2023-05-10T14:48:41;1.55;;;1.20;;
76574;SDS011;65439;50.948;6.988;2023-05-10T14:51:07;2.20;;;1.70;;
76574;SDS011;65439;50.948;6.988;2023-05-10T14:53:32;2.47;;;1.97;;
76574;SDS011;65439;50.948;6.988;2023-05-10T14:55:57;3.42;;;2.63;;
76574;SDS011;65439;50.948;6.988;2023-05-10T14:58:23;3.23;;;2.53;;
76574;SDS011;65439;50.948;6.988;2023-05-10T15:00:48;2.63;;;1.70;;
76574;SDS011;65439;50.948;6.988;2023-05-10T15:03:13;4.30;;;2.63;;
76574;SDS011;65439;50.948;6.988;2023-05-10T15:05:38;3.40;;;1.90;;
76574;SDS011;65439;50.948;6.988;2023-05-10T15:08:04;3.50;;;2.17;;
76574;SDS011;65439;50.948;6.988;2023-05-10T15:10:30;2.85;;;1.73;;
76574;SDS011;65439;50.948;6.988;2023-05-10T15:15:22;2.70;;;2.10;;